sensor_id;sensor_type;location;lat;lon;timestamp;P1;durP1;ratioP1;P2;durP2;ratioP2
67804;SDS011;54603;45.638;11.714;2022-12-07T00:01:05;8.60;;;7.70;;
67804;SDS011;54603;45.638;11.714;2022-12-07T00:03:34;8.00;;;7.20;;
67804;SDS011;54603;45.638;11.714;2022-12-07T00:06:01;10.40;;;7.40;;
67804;SDS011;54603;45.638;11.714;2022-12-07T00:08:27;7.40;;;6.70;;
67804;SDS011;54603;45.638;11.714;2022-12-07T00:10:52;8.10;;;7.20;;
67804;SDS011;54603;45.638;11.714;2022-12-07T00:13:18;8.40;;;7.60;;
67804;SDS011;54603;45.638;11.714;2022-12-07T00:15:44;8.00;;;7.10;;
67804;SDS011;54603;45.638;11.714;2022-12-07T00:18:10;7.80;;;7.00;;
67804;SDS011;54603;45.638;11.714;2022-12-07T00:20:35;7.70;;;6.90;;
67804;SDS011;54603;45.638;11.714;2022-12-07T00:23:01;7.80;;;7.00;;
67804;SDS011;54603;45.638;11.714;2022-12-07T00:25:26;9.00;;;7.20;;
67804;SDS011;54603;45.638;11.714;2022-12-07T00:27:52;7.20;;;6.50;;
67804;SDS011;54603;45.638;11.714;2022-12-07T00:30:21;8.60;;;7.00;;
67804;SDS011;54603;45.638;11.714;2022-12-07T00:32:47;7.60;;;6.90;;
67804;SDS011;54603;45.638;11.714;2022-12-07T00:35:13;8.10;;;7.00;;
67804;SDS011;54603;45.638;11.714;2022-12-07T00:37:38;10.20;;;7.00;;
67804;SDS011;54603;45.638;11.714;2022-12-07T00:40:05;8.10;;;7.00;;
67804;SDS011;54603;45.638;11.714;2022-12-07T00:42:31;7.50;;;6.80;;
67804;SDS011;54603;45.638;11.714;2022-12-07T00:44:56;7.70;;;6.90;;
67804;SDS011;54603;45.638;11.714;2022-12-07T00:47:22;7.60;;;6.60;;
67804;SDS011;54603;45.638;11.714;2022-12-07T00:49:47;8.80;;;6.90;;
67804;SDS011;54603;45.638;11.714;2022-12-07T00:52:13;8.40;;;6.90;;
67804;SDS011;54603;45.638;11.714;2022-12-07T00:54:39;7.80;;;6.90;;
67804;SDS011;54603;45.638;11.714;2022-12-07T00:57:05;7.60;;;6.90;;
67804;SDS011;54603;45.638;11.714;2022-12-07T00:59:30;7.60;;;6.90;;
67804;SDS011;54603;45.638;11.714;2022-12-07T01:01:56;8.00;;;7.20;;
67804;SDS011;54603;45.638;11.714;2022-12-07T01:04:21;7.10;;;6.40;;
67804;SDS011;54603;45.638;11.714;2022-12-07T01:06:47;8.20;;;7.20;;
67804;SDS011;54603;45.638;11.714;2022-12-07T01:09:12;7.70;;;7.00;;
67804;SDS011;54603;45.638;11.714;2022-12-07T01:11:38;8.30;;;6.10;;
67804;SDS011;54603;45.638;11.714;2022-12-07T01:14:04;9.20;;;7.10;;
67804;SDS011;54603;45.638;11.714;2022-12-07T01:16:30;7.40;;;6.50;;
67804;SDS011;54603;45.638;11.714;2022-12-07T01:18:57;7.30;;;6.60;;
67804;SDS011;54603;45.638;11.714;2022-12-07T01:21:24;7.80;;;6.60;;
67804;SDS011;54603;45.638;11.714;2022-12-07T01:23:52;7.50;;;6.80;;
67804;SDS011;54603;45.638;11.714;2022-12-07T01:26:21;7.30;;;6.40;;
67804;SDS011;54603;45.638;11.714;2022-12-07T01:28:48;8.20;;;6.30;;
67804;SDS011;54603;45.638;11.714;2022-12-07T01:31:15;8.70;;;6.60;;
67804;SDS011;54603;45.638;11.714;2022-12-07T01:33:47;7.20;;;6.50;;
67804;SDS011;54603;45.638;11.714;2022-12-07T01:36:17;7.00;;;6.30;;
67804;SDS011;54603;45.638;11.714;2022-12-07T01:38:45;7.50;;;6.70;;
67804;SDS011;54603;45.638;11.714;2022-12-07T01:41:11;8.00;;;7.20;;
67804;SDS011;54603;45.638;11.714;2022-12-07T01:44:05;7.00;;;6.30;;
67804;SDS011;54603;45.638;11.714;2022-12-07T01:46:32;7.50;;;6.70;;
67804;SDS011;54603;45.638;11.714;2022-12-07T01:48:58;8.60;;;7.40;;
67804;SDS011;54603;45.638;11.714;2022-12-07T01:51:23;7.30;;;6.50;;
67804;SDS011;54603;45.638;11.714;2022-12-07T01:53:49;7.80;;;6.70;;
67804;SDS011;54603;45.638;11.714;2022-12-07T01:56:17;7.80;;;6.70;;
67804;SDS011;54603;45.638;11.714;2022-12-07T01:58:45;7.70;;;6.90;;
67804;SDS011;54603;45.638;11.714;2022-12-07T02:01:11;7.90;;;6.80;;
67804;SDS011;54603;45.638;11.714;2022-12-07T02:03:38;6.90;;;6.10;;
67804;SDS011;54603;45.638;11.714;2022-12-07T02:06:05;7.70;;;6.70;;
67804;SDS011;54603;45.638;11.714;2022-12-07T02:08:32;7.70;;;6.40;;
67804;SDS011;54603;45.638;11.714;2022-12-07T02:11:00;7.70;;;6.80;;
67804;SDS011;54603;45.638;11.714;2022-12-07T02:13:28;7.50;;;6.40;;
67804;SDS011;54603;45.638;11.714;2022-12-07T02:21:34;6.90;;;6.20;;
67804;SDS011;54603;45.638;11.714;2022-12-07T02:24:28;6.90;;;6.20;;
67804;SDS011;54603;45.638;11.714;2022-12-07T02:27:26;7.60;;;6.60;;
67804;SDS011;54603;45.638;11.714;2022-12-07T02:30:06;6.80;;;6.10;;
67804;SDS011;54603;45.638;11.714;2022-12-07T02:32:51;7.20;;;6.50;;
67804;SDS011;54603;45.638;11.714;2022-12-07T02:35:30;7.30;;;6.50;;
67804;SDS011;54603;45.638;11.714;2022-12-07T02:38:02;7.40;;;6.20;;
67804;SDS011;54603;45.638;11.714;2022-12-07T02:40:41;7.50;;;6.20;;
67804;SDS011;54603;45.638;11.714;2022-12-07T02:43:19;7.20;;;6.20;;
67804;SDS011;54603;45.638;11.714;2022-12-07T02:45:59;7.70;;;6.90;;
67804;SDS011;54603;45.638;11.714;2022-12-07T02:48:30;7.00;;;6.30;;
67804;SDS011;54603;45.638;11.714;2022-12-07T02:50:57;7.50;;;6.50;;
67804;SDS011;54603;45.638;11.714;2022-12-07T02:53:32;7.50;;;6.70;;
67804;SDS011;54603;45.638;11.714;2022-12-07T02:56:06;6.80;;;6.10;;
67804;SDS011;54603;45.638;11.714;2022-12-07T03:01:39;6.80;;;6.10;;
67804;SDS011;54603;45.638;11.714;2022-12-07T03:15:26;7.30;;;6.30;;
67804;SDS011;54603;45.638;11.714;2022-12-07T03:17:55;7.10;;;6.40;;
67804;SDS011;54603;45.638;11.714;2022-12-07T03:20:22;7.00;;;6.20;;
67804;SDS011;54603;45.638;11.714;2022-12-07T03:22:51;6.80;;;6.10;;
67804;SDS011;54603;45.638;11.714;2022-12-07T03:25:18;6.40;;;5.80;;
67804;SDS011;54603;45.638;11.714;2022-12-07T03:27:54;6.80;;;6.10;;
67804;SDS011;54603;45.638;11.714;2022-12-07T03:30:33;6.30;;;5.70;;
67804;SDS011;54603;45.638;11.714;2022-12-07T03:33:15;7.00;;;6.30;;
67804;SDS011;54603;45.638;11.714;2022-12-07T03:35:50;6.80;;;6.00;;
67804;SDS011;54603;45.638;11.714;2022-12-07T03:38:19;7.00;;;6.20;;
67804;SDS011;54603;45.638;11.714;2022-12-07T03:43:16;6.70;;;6.00;;
67804;SDS011;54603;45.638;11.714;2022-12-07T03:45:44;6.90;;;6.20;;
67804;SDS011;54603;45.638;11.714;2022-12-07T03:51:06;7.30;;;6.60;;
67804;SDS011;54603;45.638;11.714;2022-12-07T03:53:44;6.00;;;5.40;;
67804;SDS011;54603;45.638;11.714;2022-12-07T03:56:25;6.80;;;6.00;;
67804;SDS011;54603;45.638;11.714;2022-12-07T03:58:52;6.60;;;5.90;;
67804;SDS011;54603;45.638;11.714;2022-12-07T04:01:18;7.40;;;6.00;;
67804;SDS011;54603;45.638;11.714;2022-12-07T04:03:44;6.80;;;6.10;;
67804;SDS011;54603;45.638;11.714;2022-12-07T04:06:09;6.60;;;5.90;;
67804;SDS011;54603;45.638;11.714;2022-12-07T04:08:35;6.80;;;5.90;;
67804;SDS011;54603;45.638;11.714;2022-12-07T04:11:01;6.10;;;5.50;;
67804;SDS011;54603;45.638;11.714;2022-12-07T04:13:27;6.50;;;5.80;;
67804;SDS011;54603;45.638;11.714;2022-12-07T04:15:52;6.80;;;6.20;;
67804;SDS011;54603;45.638;11.714;2022-12-07T04:18:18;6.80;;;6.10;;
67804;SDS011;54603;45.638;11.714;2022-12-07T04:20:43;6.30;;;5.70;;
67804;SDS011;54603;45.638;11.714;2022-12-07T04:23:10;7.10;;;6.10;;
67804;SDS011;54603;45.638;11.714;2022-12-07T04:25:36;6.70;;;6.00;;
67804;SDS011;54603;45.638;11.714;2022-12-07T04:28:01;6.90;;;6.20;;
67804;SDS011;54603;45.638;11.714;2022-12-07T04:30:27;19.40;;;6.50;;
67804;SDS011;54603;45.638;11.714;2022-12-07T04:32:52;6.60;;;6.00;;
67804;SDS011;54603;45.638;11.714;2022-12-07T04:35:18;6.20;;;5.60;;
67804;SDS011;54603;45.638;11.714;2022-12-07T04:37:43;7.50;;;6.00;;
67804;SDS011;54603;45.638;11.714;2022-12-07T04:40:09;6.60;;;5.80;;
67804;SDS011;54603;45.638;11.714;2022-12-07T04:42:36;6.60;;;6.00;;
67804;SDS011;54603;45.638;11.714;2022-12-07T04:45:03;8.10;;;6.10;;
67804;SDS011;54603;45.638;11.714;2022-12-07T04:47:30;6.70;;;6.00;;
67804;SDS011;54603;45.638;11.714;2022-12-07T04:49:56;6.40;;;5.70;;
67804;SDS011;54603;45.638;11.714;2022-12-07T04:52:21;6.60;;;5.80;;
67804;SDS011;54603;45.638;11.714;2022-12-07T04:54:47;6.90;;;6.20;;
67804;SDS011;54603;45.638;11.714;2022-12-07T04:57:12;6.50;;;5.90;;
67804;SDS011;54603;45.638;11.714;2022-12-07T04:59:38;6.70;;;5.90;;
67804;SDS011;54603;45.638;11.714;2022-12-07T05:02:04;7.70;;;5.70;;
67804;SDS011;54603;45.638;11.714;2022-12-07T05:04:30;7.30;;;6.00;;
67804;SDS011;54603;45.638;11.714;2022-12-07T05:06:55;7.10;;;5.80;;
67804;SDS011;54603;45.638;11.714;2022-12-07T05:09:22;6.70;;;5.90;;
67804;SDS011;54603;45.638;11.714;2022-12-07T05:11:52;6.60;;;6.00;;
67804;SDS011;54603;45.638;11.714;2022-12-07T05:14:19;6.00;;;5.40;;
67804;SDS011;54603;45.638;11.714;2022-12-07T05:16:47;6.20;;;5.60;;
67804;SDS011;54603;45.638;11.714;2022-12-07T05:19:15;6.40;;;5.40;;
67804;SDS011;54603;45.638;11.714;2022-12-07T05:21:43;6.10;;;5.50;;
67804;SDS011;54603;45.638;11.714;2022-12-07T05:24:10;6.70;;;5.20;;
67804;SDS011;54603;45.638;11.714;2022-12-07T05:26:36;6.20;;;5.60;;
67804;SDS011;54603;45.638;11.714;2022-12-07T05:29:02;7.00;;;5.80;;
67804;SDS011;54603;45.638;11.714;2022-12-07T05:31:28;6.00;;;5.40;;
67804;SDS011;54603;45.638;11.714;2022-12-07T05:33:53;6.50;;;5.80;;
67804;SDS011;54603;45.638;11.714;2022-12-07T05:36:19;6.40;;;5.80;;
67804;SDS011;54603;45.638;11.714;2022-12-07T05:38:45;6.20;;;5.60;;
67804;SDS011;54603;45.638;11.714;2022-12-07T05:41:12;7.00;;;6.10;;
67804;SDS011;54603;45.638;11.714;2022-12-07T05:43:58;6.60;;;5.30;;
67804;SDS011;54603;45.638;11.714;2022-12-07T05:46:24;7.00;;;5.90;;
67804;SDS011;54603;45.638;11.714;2022-12-07T05:48:50;7.00;;;5.40;;
67804;SDS011;54603;45.638;11.714;2022-12-07T05:51:15;6.60;;;5.60;;
67804;SDS011;54603;45.638;11.714;2022-12-07T05:53:41;6.60;;;5.80;;
67804;SDS011;54603;45.638;11.714;2022-12-07T05:56:07;6.60;;;5.70;;
67804;SDS011;54603;45.638;11.714;2022-12-07T05:58:32;6.10;;;5.40;;
67804;SDS011;54603;45.638;11.714;2022-12-07T06:01:16;6.90;;;5.70;;
67804;SDS011;54603;45.638;11.714;2022-12-07T06:03:42;8.00;;;6.10;;
67804;SDS011;54603;45.638;11.714;2022-12-07T06:06:10;6.80;;;5.70;;
67804;SDS011;54603;45.638;11.714;2022-12-07T06:08:35;6.30;;;5.70;;
67804;SDS011;54603;45.638;11.714;2022-12-07T06:11:01;5.90;;;5.40;;
67804;SDS011;54603;45.638;11.714;2022-12-07T06:13:45;6.20;;;5.60;;
67804;SDS011;54603;45.638;11.714;2022-12-07T06:16:11;6.50;;;5.70;;
67804;SDS011;54603;45.638;11.714;2022-12-07T06:18:36;6.40;;;5.60;;
67804;SDS011;54603;45.638;11.714;2022-12-07T06:21:02;5.90;;;5.20;;
67804;SDS011;54603;45.638;11.714;2022-12-07T06:23:27;6.30;;;5.70;;
67804;SDS011;54603;45.638;11.714;2022-12-07T06:25:53;6.40;;;5.60;;
67804;SDS011;54603;45.638;11.714;2022-12-07T06:28:19;6.50;;;5.50;;
67804;SDS011;54603;45.638;11.714;2022-12-07T06:30:44;6.30;;;5.70;;
67804;SDS011;54603;45.638;11.714;2022-12-07T06:33:10;6.10;;;5.30;;
67804;SDS011;54603;45.638;11.714;2022-12-07T06:35:35;5.90;;;5.40;;
67804;SDS011;54603;45.638;11.714;2022-12-07T06:38:01;6.30;;;5.50;;
67804;SDS011;54603;45.638;11.714;2022-12-07T06:40:26;5.90;;;5.30;;
67804;SDS011;54603;45.638;11.714;2022-12-07T06:42:52;7.70;;;5.60;;
67804;SDS011;54603;45.638;11.714;2022-12-07T06:45:17;6.20;;;5.50;;
67804;SDS011;54603;45.638;11.714;2022-12-07T06:47:43;6.90;;;5.40;;
67804;SDS011;54603;45.638;11.714;2022-12-07T06:50:09;5.90;;;5.30;;
67804;SDS011;54603;45.638;11.714;2022-12-07T06:52:35;6.00;;;5.30;;
67804;SDS011;54603;45.638;11.714;2022-12-07T06:55:02;5.50;;;5.00;;
67804;SDS011;54603;45.638;11.714;2022-12-07T06:57:32;7.00;;;5.20;;
67804;SDS011;54603;45.638;11.714;2022-12-07T06:59:58;6.20;;;5.40;;
67804;SDS011;54603;45.638;11.714;2022-12-07T07:02:23;6.10;;;5.30;;
67804;SDS011;54603;45.638;11.714;2022-12-07T07:04:49;6.60;;;5.90;;
67804;SDS011;54603;45.638;11.714;2022-12-07T07:07:14;6.10;;;5.40;;
67804;SDS011;54603;45.638;11.714;2022-12-07T07:09:40;5.90;;;5.30;;
67804;SDS011;54603;45.638;11.714;2022-12-07T07:12:06;6.80;;;5.50;;
67804;SDS011;54603;45.638;11.714;2022-12-07T07:14:32;11.00;;;5.70;;
67804;SDS011;54603;45.638;11.714;2022-12-07T07:16:58;12.40;;;5.40;;
67804;SDS011;54603;45.638;11.714;2022-12-07T07:19:23;13.40;;;5.60;;
67804;SDS011;54603;45.638;11.714;2022-12-07T07:21:49;13.60;;;5.90;;
67804;SDS011;54603;45.638;11.714;2022-12-07T07:24:14;22.70;;;6.60;;
67804;SDS011;54603;45.638;11.714;2022-12-07T07:26:40;14.10;;;6.00;;
67804;SDS011;54603;45.638;11.714;2022-12-07T07:29:05;17.40;;;6.10;;
67804;SDS011;54603;45.638;11.714;2022-12-07T07:31:32;21.40;;;6.40;;
67804;SDS011;54603;45.638;11.714;2022-12-07T07:34:10;12.90;;;6.10;;
67804;SDS011;54603;45.638;11.714;2022-12-07T07:36:55;16.60;;;5.80;;
67804;SDS011;54603;45.638;11.714;2022-12-07T07:39:22;15.50;;;6.00;;
67804;SDS011;54603;45.638;11.714;2022-12-07T07:41:49;17.80;;;6.20;;
67804;SDS011;54603;45.638;11.714;2022-12-07T07:44:21;12.20;;;5.90;;
67804;SDS011;54603;45.638;11.714;2022-12-07T07:46:56;10.40;;;6.20;;
67804;SDS011;54603;45.638;11.714;2022-12-07T07:49:21;12.90;;;5.90;;
67804;SDS011;54603;45.638;11.714;2022-12-07T07:51:47;13.80;;;6.20;;
67804;SDS011;54603;45.638;11.714;2022-12-07T07:54:13;10.10;;;5.80;;
67804;SDS011;54603;45.638;11.714;2022-12-07T07:56:38;13.50;;;6.50;;
67804;SDS011;54603;45.638;11.714;2022-12-07T07:59:05;12.10;;;6.40;;
67804;SDS011;54603;45.638;11.714;2022-12-07T08:01:32;12.00;;;5.70;;
67804;SDS011;54603;45.638;11.714;2022-12-07T08:03:57;16.70;;;6.20;;
67804;SDS011;54603;45.638;11.714;2022-12-07T08:06:23;21.70;;;6.90;;
67804;SDS011;54603;45.638;11.714;2022-12-07T08:08:48;15.90;;;6.40;;
67804;SDS011;54603;45.638;11.714;2022-12-07T08:11:14;16.70;;;6.20;;
67804;SDS011;54603;45.638;11.714;2022-12-07T08:13:39;15.30;;;7.20;;
67804;SDS011;54603;45.638;11.714;2022-12-07T08:16:06;13.10;;;6.30;;
67804;SDS011;54603;45.638;11.714;2022-12-07T08:18:37;13.40;;;6.40;;
67804;SDS011;54603;45.638;11.714;2022-12-07T08:21:03;16.10;;;6.50;;
67804;SDS011;54603;45.638;11.714;2022-12-07T08:23:30;13.30;;;6.70;;
67804;SDS011;54603;45.638;11.714;2022-12-07T08:25:59;15.70;;;6.60;;
67804;SDS011;54603;45.638;11.714;2022-12-07T08:28:27;14.10;;;7.00;;
67804;SDS011;54603;45.638;11.714;2022-12-07T08:30:58;15.00;;;6.90;;
67804;SDS011;54603;45.638;11.714;2022-12-07T08:33:26;17.00;;;7.10;;
67804;SDS011;54603;45.638;11.714;2022-12-07T08:35:52;12.10;;;6.40;;
67804;SDS011;54603;45.638;11.714;2022-12-07T08:38:17;13.20;;;6.60;;
67804;SDS011;54603;45.638;11.714;2022-12-07T08:40:43;18.30;;;6.70;;
67804;SDS011;54603;45.638;11.714;2022-12-07T08:43:09;14.60;;;6.10;;
67804;SDS011;54603;45.638;11.714;2022-12-07T08:45:34;12.30;;;6.50;;
67804;SDS011;54603;45.638;11.714;2022-12-07T08:50:27;15.80;;;5.80;;
67804;SDS011;54603;45.638;11.714;2022-12-07T08:52:54;10.40;;;6.50;;
67804;SDS011;54603;45.638;11.714;2022-12-07T08:55:20;14.60;;;6.60;;
67804;SDS011;54603;45.638;11.714;2022-12-07T08:57:47;13.10;;;5.90;;
67804;SDS011;54603;45.638;11.714;2022-12-07T09:00:13;10.50;;;5.70;;
67804;SDS011;54603;45.638;11.714;2022-12-07T09:02:39;13.00;;;6.40;;
67804;SDS011;54603;45.638;11.714;2022-12-07T09:05:05;11.10;;;6.30;;
67804;SDS011;54603;45.638;11.714;2022-12-07T09:07:31;16.10;;;6.10;;
67804;SDS011;54603;45.638;11.714;2022-12-07T09:09:58;12.80;;;6.10;;
67804;SDS011;54603;45.638;11.714;2022-12-07T09:12:23;11.20;;;6.10;;
67804;SDS011;54603;45.638;11.714;2022-12-07T09:14:49;9.30;;;6.20;;
67804;SDS011;54603;45.638;11.714;2022-12-07T09:17:14;9.30;;;5.60;;
67804;SDS011;54603;45.638;11.714;2022-12-07T09:19:40;13.50;;;5.60;;
67804;SDS011;54603;45.638;11.714;2022-12-07T09:22:07;11.70;;;6.00;;
67804;SDS011;54603;45.638;11.714;2022-12-07T09:24:33;11.30;;;5.70;;
67804;SDS011;54603;45.638;11.714;2022-12-07T09:26:59;10.20;;;5.60;;
67804;SDS011;54603;45.638;11.714;2022-12-07T09:29:25;10.20;;;5.90;;
67804;SDS011;54603;45.638;11.714;2022-12-07T09:31:51;11.40;;;5.90;;
67804;SDS011;54603;45.638;11.714;2022-12-07T09:34:17;10.60;;;5.60;;
67804;SDS011;54603;45.638;11.714;2022-12-07T09:36:43;9.40;;;5.30;;
67804;SDS011;54603;45.638;11.714;2022-12-07T09:39:09;10.00;;;5.50;;
67804;SDS011;54603;45.638;11.714;2022-12-07T09:41:37;8.20;;;5.50;;
67804;SDS011;54603;45.638;11.714;2022-12-07T09:44:06;8.60;;;5.80;;
67804;SDS011;54603;45.638;11.714;2022-12-07T09:46:39;8.50;;;5.70;;
67804;SDS011;54603;45.638;11.714;2022-12-07T09:49:11;8.20;;;5.60;;
67804;SDS011;54603;45.638;11.714;2022-12-07T09:51:39;10.70;;;5.70;;
67804;SDS011;54603;45.638;11.714;2022-12-07T09:54:04;9.50;;;5.30;;
67804;SDS011;54603;45.638;11.714;2022-12-07T09:56:30;8.10;;;5.40;;
67804;SDS011;54603;45.638;11.714;2022-12-07T09:58:59;8.20;;;5.90;;
67804;SDS011;54603;45.638;11.714;2022-12-07T10:01:30;6.40;;;5.30;;
67804;SDS011;54603;45.638;11.714;2022-12-07T10:04:19;9.20;;;5.40;;
67804;SDS011;54603;45.638;11.714;2022-12-07T10:06:49;8.40;;;5.70;;
67804;SDS011;54603;45.638;11.714;2022-12-07T10:09:18;8.80;;;5.60;;
67804;SDS011;54603;45.638;11.714;2022-12-07T10:12:04;6.50;;;5.30;;
67804;SDS011;54603;45.638;11.714;2022-12-07T10:14:37;7.00;;;5.10;;
67804;SDS011;54603;45.638;11.714;2022-12-07T10:18:13;8.10;;;5.30;;
67804;SDS011;54603;45.638;11.714;2022-12-07T10:22:37;8.00;;;5.40;;
67804;SDS011;54603;45.638;11.714;2022-12-07T10:25:09;8.40;;;5.20;;
67804;SDS011;54603;45.638;11.714;2022-12-07T10:27:45;7.20;;;5.50;;
67804;SDS011;54603;45.638;11.714;2022-12-07T10:30:58;7.00;;;5.30;;
67804;SDS011;54603;45.638;11.714;2022-12-07T10:33:30;6.30;;;5.10;;
67804;SDS011;54603;45.638;11.714;2022-12-07T10:36:18;7.80;;;4.90;;
67804;SDS011;54603;45.638;11.714;2022-12-07T10:39:10;8.20;;;5.10;;
67804;SDS011;54603;45.638;11.714;2022-12-07T10:44:21;7.70;;;5.30;;
67804;SDS011;54603;45.638;11.714;2022-12-07T10:55:27;6.30;;;4.60;;
67804;SDS011;54603;45.638;11.714;2022-12-07T10:58:20;7.50;;;5.10;;
67804;SDS011;54603;45.638;11.714;2022-12-07T11:03:46;6.40;;;4.70;;
67804;SDS011;54603;45.638;11.714;2022-12-07T11:06:35;7.30;;;5.00;;
67804;SDS011;54603;45.638;11.714;2022-12-07T11:12:07;6.70;;;4.60;;
67804;SDS011;54603;45.638;11.714;2022-12-07T11:14:47;7.70;;;5.00;;
67804;SDS011;54603;45.638;11.714;2022-12-07T11:23:23;6.20;;;4.50;;
67804;SDS011;54603;45.638;11.714;2022-12-07T11:36:54;6.30;;;4.70;;
67804;SDS011;54603;45.638;11.714;2022-12-07T11:39:23;7.80;;;4.60;;
67804;SDS011;54603;45.638;11.714;2022-12-07T11:41:54;5.90;;;4.50;;
67804;SDS011;54603;45.638;11.714;2022-12-07T11:47:09;7.70;;;4.40;;
67804;SDS011;54603;45.638;11.714;2022-12-07T11:49:43;7.80;;;4.40;;
67804;SDS011;54603;45.638;11.714;2022-12-07T11:52:20;6.50;;;4.40;;
67804;SDS011;54603;45.638;11.714;2022-12-07T11:54:51;7.10;;;4.40;;
67804;SDS011;54603;45.638;11.714;2022-12-07T11:57:20;5.70;;;4.40;;
67804;SDS011;54603;45.638;11.714;2022-12-07T12:00:17;8.50;;;4.20;;
67804;SDS011;54603;45.638;11.714;2022-12-07T12:05:19;7.60;;;4.40;;
67804;SDS011;54603;45.638;11.714;2022-12-07T12:07:48;8.20;;;4.50;;
67804;SDS011;54603;45.638;11.714;2022-12-07T12:10:51;6.30;;;4.20;;
67804;SDS011;54603;45.638;11.714;2022-12-07T12:13:28;8.80;;;5.00;;
67804;SDS011;54603;45.638;11.714;2022-12-07T12:16:27;7.80;;;4.50;;
67804;SDS011;54603;45.638;11.714;2022-12-07T12:21:49;6.60;;;4.20;;
67804;SDS011;54603;45.638;11.714;2022-12-07T12:24:22;5.00;;;4.50;;
67804;SDS011;54603;45.638;11.714;2022-12-07T12:26:50;10.50;;;4.70;;
67804;SDS011;54603;45.638;11.714;2022-12-07T12:29:37;6.20;;;3.80;;
67804;SDS011;54603;45.638;11.714;2022-12-07T12:42:48;9.20;;;3.90;;
67804;SDS011;54603;45.638;11.714;2022-12-07T12:47:56;4.80;;;3.70;;
67804;SDS011;54603;45.638;11.714;2022-12-07T12:50:24;5.20;;;3.80;;
67804;SDS011;54603;45.638;11.714;2022-12-07T12:58:49;5.80;;;4.10;;
67804;SDS011;54603;45.638;11.714;2022-12-07T13:03:56;5.70;;;3.70;;
67804;SDS011;54603;45.638;11.714;2022-12-07T13:08:50;5.10;;;3.60;;
67804;SDS011;54603;45.638;11.714;2022-12-07T13:11:18;4.00;;;3.40;;
67804;SDS011;54603;45.638;11.714;2022-12-07T13:13:45;8.10;;;3.60;;
67804;SDS011;54603;45.638;11.714;2022-12-07T13:18:37;6.30;;;3.60;;
67804;SDS011;54603;45.638;11.714;2022-12-07T13:28:48;5.10;;;3.20;;
67804;SDS011;54603;45.638;11.714;2022-12-07T13:31:35;6.90;;;4.00;;
67804;SDS011;54603;45.638;11.714;2022-12-07T13:39:32;7.50;;;3.70;;
67804;SDS011;54603;45.638;11.714;2022-12-07T13:41:58;5.50;;;3.20;;
67804;SDS011;54603;45.638;11.714;2022-12-07T13:44:27;6.10;;;3.50;;
67804;SDS011;54603;45.638;11.714;2022-12-07T13:47:01;6.40;;;3.40;;
67804;SDS011;54603;45.638;11.714;2022-12-07T13:49:31;4.70;;;3.40;;
67804;SDS011;54603;45.638;11.714;2022-12-07T13:52:13;6.20;;;3.60;;
67804;SDS011;54603;45.638;11.714;2022-12-07T13:57:12;3.60;;;2.90;;
67804;SDS011;54603;45.638;11.714;2022-12-07T13:59:37;4.20;;;3.30;;
67804;SDS011;54603;45.638;11.714;2022-12-07T14:02:17;7.60;;;3.60;;
67804;SDS011;54603;45.638;11.714;2022-12-07T14:05:06;4.40;;;3.10;;
67804;SDS011;54603;45.638;11.714;2022-12-07T14:07:33;6.60;;;3.60;;
67804;SDS011;54603;45.638;11.714;2022-12-07T14:10:00;5.60;;;3.00;;
67804;SDS011;54603;45.638;11.714;2022-12-07T14:12:30;3.70;;;3.20;;
67804;SDS011;54603;45.638;11.714;2022-12-07T14:14:56;4.50;;;3.00;;
67804;SDS011;54603;45.638;11.714;2022-12-07T14:17:23;7.10;;;3.40;;
67804;SDS011;54603;45.638;11.714;2022-12-07T14:19:51;5.00;;;3.30;;
67804;SDS011;54603;45.638;11.714;2022-12-07T14:22:22;7.60;;;3.40;;
67804;SDS011;54603;45.638;11.714;2022-12-07T14:24:48;5.10;;;3.10;;
67804;SDS011;54603;45.638;11.714;2022-12-07T14:27:20;7.90;;;3.60;;
67804;SDS011;54603;45.638;11.714;2022-12-07T14:29:47;7.30;;;3.50;;
67804;SDS011;54603;45.638;11.714;2022-12-07T14:32:24;4.60;;;3.30;;
67804;SDS011;54603;45.638;11.714;2022-12-07T14:35:02;6.20;;;3.50;;
67804;SDS011;54603;45.638;11.714;2022-12-07T14:37:33;4.60;;;3.90;;
67804;SDS011;54603;45.638;11.714;2022-12-07T14:39:59;6.20;;;3.80;;
67804;SDS011;54603;45.638;11.714;2022-12-07T14:42:26;5.10;;;4.00;;
67804;SDS011;54603;45.638;11.714;2022-12-07T14:44:53;12.40;;;7.80;;
67804;SDS011;54603;45.638;11.714;2022-12-07T14:47:19;17.80;;;13.50;;
67804;SDS011;54603;45.638;11.714;2022-12-07T14:49:45;21.90;;;14.30;;
67804;SDS011;54603;45.638;11.714;2022-12-07T14:52:15;18.50;;;12.30;;
67804;SDS011;54603;45.638;11.714;2022-12-07T14:54:46;20.50;;;13.80;;
67804;SDS011;54603;45.638;11.714;2022-12-07T14:57:12;18.20;;;13.20;;
67804;SDS011;54603;45.638;11.714;2022-12-07T14:59:38;18.90;;;13.80;;
67804;SDS011;54603;45.638;11.714;2022-12-07T15:02:04;19.80;;;13.30;;
67804;SDS011;54603;45.638;11.714;2022-12-07T15:04:30;18.60;;;13.20;;
67804;SDS011;54603;45.638;11.714;2022-12-07T15:06:56;19.70;;;13.70;;
67804;SDS011;54603;45.638;11.714;2022-12-07T15:09:23;16.60;;;12.90;;
67804;SDS011;54603;45.638;11.714;2022-12-07T15:11:48;15.20;;;12.10;;
67804;SDS011;54603;45.638;11.714;2022-12-07T15:14:14;16.30;;;12.60;;
67804;SDS011;54603;45.638;11.714;2022-12-07T15:16:41;17.80;;;13.20;;
67804;SDS011;54603;45.638;11.714;2022-12-07T15:19:21;18.90;;;12.90;;
67804;SDS011;54603;45.638;11.714;2022-12-07T15:21:50;16.90;;;12.40;;
67804;SDS011;54603;45.638;11.714;2022-12-07T15:24:16;17.10;;;13.10;;
67804;SDS011;54603;45.638;11.714;2022-12-07T15:26:41;20.20;;;12.70;;
67804;SDS011;54603;45.638;11.714;2022-12-07T15:29:07;17.90;;;12.40;;
67804;SDS011;54603;45.638;11.714;2022-12-07T15:31:34;16.50;;;11.60;;
67804;SDS011;54603;45.638;11.714;2022-12-07T15:34:00;16.20;;;11.80;;
67804;SDS011;54603;45.638;11.714;2022-12-07T15:36:26;16.50;;;11.90;;
67804;SDS011;54603;45.638;11.714;2022-12-07T15:38:53;16.20;;;11.30;;
67804;SDS011;54603;45.638;11.714;2022-12-07T15:41:19;17.20;;;11.90;;
67804;SDS011;54603;45.638;11.714;2022-12-07T15:43:46;16.60;;;11.30;;
67804;SDS011;54603;45.638;11.714;2022-12-07T15:46:31;15.10;;;10.60;;
67804;SDS011;54603;45.638;11.714;2022-12-07T15:48:57;19.20;;;11.80;;
67804;SDS011;54603;45.638;11.714;2022-12-07T15:51:23;18.90;;;10.40;;
67804;SDS011;54603;45.638;11.714;2022-12-07T15:53:49;15.30;;;11.00;;
67804;SDS011;54603;45.638;11.714;2022-12-07T15:56:14;15.10;;;10.40;;
67804;SDS011;54603;45.638;11.714;2022-12-07T15:58:40;14.90;;;10.70;;
67804;SDS011;54603;45.638;11.714;2022-12-07T16:01:16;13.70;;;9.90;;
67804;SDS011;54603;45.638;11.714;2022-12-07T16:03:43;14.00;;;10.60;;
67804;SDS011;54603;45.638;11.714;2022-12-07T16:06:09;18.00;;;11.10;;
67804;SDS011;54603;45.638;11.714;2022-12-07T16:08:35;14.20;;;10.10;;
67804;SDS011;54603;45.638;11.714;2022-12-07T16:11:04;13.80;;;10.10;;
67804;SDS011;54603;45.638;11.714;2022-12-07T16:13:33;15.40;;;10.00;;
67804;SDS011;54603;45.638;11.714;2022-12-07T16:16:02;13.50;;;10.10;;
67804;SDS011;54603;45.638;11.714;2022-12-07T16:18:28;16.10;;;10.30;;
67804;SDS011;54603;45.638;11.714;2022-12-07T16:20:54;14.80;;;10.00;;
67804;SDS011;54603;45.638;11.714;2022-12-07T16:23:19;16.30;;;10.40;;
67804;SDS011;54603;45.638;11.714;2022-12-07T16:25:45;13.60;;;9.30;;
67804;SDS011;54603;45.638;11.714;2022-12-07T16:28:10;15.60;;;10.50;;
67804;SDS011;54603;45.638;11.714;2022-12-07T16:30:36;13.90;;;9.70;;
67804;SDS011;54603;45.638;11.714;2022-12-07T16:33:01;13.40;;;9.90;;
67804;SDS011;54603;45.638;11.714;2022-12-07T16:35:27;13.90;;;10.00;;